Aviation Digital Data Service (ADDS)

Output produced by METARs form (2157 UTC 30 June 2022)
found at http://www.aviationweather.gov/metar/data/
 
METAR text: RJFT 302110Z 06004KT 9999 FEW010 24/22 Q1016 RMK 1ST010 A3000
Conditions at: RJFT (KUMAMOTO(CIV/JAS, JP) observed 2110 UTC 30 June 2022
Temperature: 24.0°C (75°F)
Dewpoint: 22.0°C (72°F) [RH = 89%]
Pressure (altimeter): 30.00 inches Hg (1016.0 mb)
Winds: from the ENE (60 degrees) at 5 MPH (4 knots; 2.1 m/s)
Visibility: 6 or more miles (10+ km)
Ceiling: at least 12,000 feet AGL
Clouds: few clouds at 1000 feet AGL
Weather: no significant weather observed at this time

METAR text: RJFT 301200Z 18004KT 9999 FEW025 27/23 Q1015
Conditions at: RJFT (KUMAMOTO(CIV/JAS, JP) observed 1200 UTC 30 June 2022
Temperature: 27.0°C (81°F)
Dewpoint: 23.0°C (73°F) [RH = 79%]
Pressure (altimeter): 29.97 inches Hg (1015.0 mb)
Winds: from the S (180 degrees) at 5 MPH (4 knots; 2.1 m/s)
Visibility: 6 or more miles (10+ km)
Ceiling: at least 12,000 feet AGL
Clouds: few clouds at 2500 feet AGL
Weather: no significant weather observed at this time

METAR text: RJFT 301100Z 20007KT 9999 FEW030 SCT060 BKN/// 28/22 Q1014
Conditions at: RJFT (KUMAMOTO(CIV/JAS, JP) observed 1100 UTC 30 June 2022
Temperature: 28.0°C (82°F)
Dewpoint: 22.0°C (72°F) [RH = 70%]
Pressure (altimeter): 29.94 inches Hg (1014.0 mb)
Winds: from the SSW (200 degrees) at 8 MPH (7 knots; 3.6 m/s)
Visibility: 6 or more miles (10+ km)
Ceiling: at least 12,000 feet AGL
Clouds: few clouds at 3000 feet AGL
scattered clouds at 6000 feet AGL
Weather: no significant weather observed at this time

METAR text: RJFT 301000Z 20009KT 9999 FEW035 SCT060 BKN/// 29/22 Q1014
Conditions at: RJFT (KUMAMOTO(CIV/JAS, JP) observed 1000 UTC 30 June 2022
Temperature: 29.0°C (84°F)
Dewpoint: 22.0°C (72°F) [RH = 66%]
Pressure (altimeter): 29.94 inches Hg (1014.0 mb)
Winds: from the SSW (200 degrees) at 10 MPH (9 knots; 4.6 m/s)
Visibility: 6 or more miles (10+ km)
Ceiling: at least 12,000 feet AGL
Clouds: few clouds at 3500 feet AGL
scattered clouds at 6000 feet AGL
Weather: no significant weather observed at this time

METAR text: RJFT 300900Z 21008KT 170V230 9999 FEW025 FEW035CB BKN060 31/21 Q1014
Conditions at: RJFT (KUMAMOTO(CIV/JAS, JP) observed 0900 UTC 30 June 2022
Temperature: 31.0°C (88°F)
Dewpoint: 21.0°C (70°F) [RH = 55%]
Pressure (altimeter): 29.94 inches Hg (1014.0 mb)
Winds: from the SSW (210 degrees) at 9 MPH (8 knots; 4.1 m/s)
Visibility: 6 or more miles (10+ km)
Ceiling: 6000 feet AGL
Clouds: few clouds at 2500 feet AGL
few clouds at 3500 feet AGL
broken clouds at 6000 feet AGL
Weather: no significant weather observed at this time

METAR text: RJFT 300850Z 22007KT 9999 FEW025 FEW035CB BKN060 32/21 Q1014 RMK 1CU025 2CB035 5SC060 A2995 CB 25KM NE-SE STNR
Conditions at: RJFT (KUMAMOTO(CIV/JAS, JP) observed 0850 UTC 30 June 2022
Temperature: 32.0°C (90°F)
Dewpoint: 21.0°C (70°F) [RH = 52%]
Pressure (altimeter): 29.94 inches Hg (1014.0 mb)
Winds: from the SW (220 degrees) at 8 MPH (7 knots; 3.6 m/s)
Visibility: 6 or more miles (10+ km)
Ceiling: 6000 feet AGL
Clouds: few clouds at 2500 feet AGL
few clouds at 3500 feet AGL
broken clouds at 6000 feet AGL
Weather: no significant weather observed at this time

METAR text: RJFT 300800Z 24007KT 200V270 9999 TS FEW030 FEW035CB SCT070 32/20 Q1013
Conditions at: RJFT (KUMAMOTO(CIV/JAS, JP) observed 0800 UTC 30 June 2022
Temperature: 32.0°C (90°F)
Dewpoint: 20.0°C (68°F) [RH = 49%]
Pressure (altimeter): 29.91 inches Hg (1013.0 mb)
Winds: from the WSW (240 degrees) at 8 MPH (7 knots; 3.6 m/s)
Visibility: 6 or more miles (10+ km)
Ceiling: at least 12,000 feet AGL
Clouds: few clouds at 3000 feet AGL
few clouds at 3500 feet AGL
scattered clouds at 7000 feet AGL
Weather: TS  (thunderstorm)

METAR text: RJFT 300747Z 25008KT 220V300 9999 TS FEW035CB 32/20 Q1013 RMK 2CB035 A2992 FBL TS 20KM E STNR
Conditions at: RJFT (KUMAMOTO(CIV/JAS, JP) observed 0747 UTC 30 June 2022
Temperature: 32.0°C (90°F)
Dewpoint: 20.0°C (68°F) [RH = 49%]
Pressure (altimeter): 29.91 inches Hg (1013.0 mb)
Winds: from the WSW (250 degrees) at 9 MPH (8 knots; 4.1 m/s)
Visibility: 6 or more miles (10+ km)
Ceiling: at least 12,000 feet AGL
Clouds: few clouds at 3500 feet AGL
Weather: TS  (thunderstorm)

METAR text: RJFT 300700Z 28007KT 250V330 9999 FEW040TCU 33/20 Q1013
Conditions at: RJFT (KUMAMOTO(CIV/JAS, JP) observed 0700 UTC 30 June 2022
Temperature: 33.0°C (91°F)
Dewpoint: 20.0°C (68°F) [RH = 46%]
Pressure (altimeter): 29.91 inches Hg (1013.0 mb)
Winds: from the W (280 degrees) at 8 MPH (7 knots; 3.6 m/s)
Visibility: 6 or more miles (10+ km)
Ceiling: at least 12,000 feet AGL
Clouds: few clouds at 4000 feet AGL
Weather: no significant weather observed at this time

METAR text: RJFT 300600Z 31005KT 250V030 9999 FEW040 33/21 Q1013
Conditions at: RJFT (KUMAMOTO(CIV/JAS, JP) observed 0600 UTC 30 June 2022
Temperature: 33.0°C (91°F)
Dewpoint: 21.0°C (70°F) [RH = 49%]
Pressure (altimeter): 29.91 inches Hg (1013.0 mb)
Winds: from the NW (310 degrees) at 6 MPH (5 knots; 2.6 m/s)
Visibility: 6 or more miles (10+ km)
Ceiling: at least 12,000 feet AGL
Clouds: few clouds at 4000 feet AGL
Weather: no significant weather observed at this time

METAR text: RJFT 300500Z VRB06KT 9999 FEW040 33/22 Q1013
Conditions at: RJFT (KUMAMOTO(CIV/JAS, JP) observed 0500 UTC 30 June 2022
Temperature: 33.0°C (91°F)
Dewpoint: 22.0°C (72°F) [RH = 53%]
Pressure (altimeter): 29.91 inches Hg (1013.0 mb)
Winds: variable direction winds at 7 MPH (6 knots; 3.1 m/s)
Visibility: 6 or more miles (10+ km)
Ceiling: at least 12,000 feet AGL
Clouds: few clouds at 4000 feet AGL
Weather: no significant weather observed at this time

METAR text: RJFT 300400Z VRB04KT 9999 FEW035 32/21 Q1014
Conditions at: RJFT (KUMAMOTO(CIV/JAS, JP) observed 0400 UTC 30 June 2022
Temperature: 32.0°C (90°F)
Dewpoint: 21.0°C (70°F) [RH = 52%]
Pressure (altimeter): 29.94 inches Hg (1014.0 mb)
Winds: variable direction winds at 5 MPH (4 knots; 2.1 m/s)
Visibility: 6 or more miles (10+ km)
Ceiling: at least 12,000 feet AGL
Clouds: few clouds at 3500 feet AGL
Weather: no significant weather observed at this time

METAR text: RJFT 300300Z VRB03KT 9999 FEW030 33/21 Q1014
Conditions at: RJFT (KUMAMOTO(CIV/JAS, JP) observed 0300 UTC 30 June 2022
Temperature: 33.0°C (91°F)
Dewpoint: 21.0°C (70°F) [RH = 49%]
Pressure (altimeter): 29.94 inches Hg (1014.0 mb)
Winds: variable direction winds at 3 MPH (3 knots; 1.5 m/s)
Visibility: 6 or more miles (10+ km)
Ceiling: at least 12,000 feet AGL
Clouds: few clouds at 3000 feet AGL
Weather: no significant weather observed at this time

METAR text: RJFT 300200Z 29005KT 230V010 9999 FEW030 32/22 Q1014
Conditions at: RJFT (KUMAMOTO(CIV/JAS, JP) observed 0200 UTC 30 June 2022
Temperature: 32.0°C (90°F)
Dewpoint: 22.0°C (72°F) [RH = 56%]
Pressure (altimeter): 29.94 inches Hg (1014.0 mb)
Winds: from the WNW (290 degrees) at 6 MPH (5 knots; 2.6 m/s)
Visibility: 6 or more miles (10+ km)
Ceiling: at least 12,000 feet AGL
Clouds: few clouds at 3000 feet AGL
Weather: no significant weather observed at this time

METAR text: RJFT 300100Z VRB03KT 9999 FEW020 30/21 Q1014
Conditions at: RJFT (KUMAMOTO(CIV/JAS, JP) observed 0100 UTC 30 June 2022
Temperature: 30.0°C (86°F)
Dewpoint: 21.0°C (70°F) [RH = 59%]
Pressure (altimeter): 29.94 inches Hg (1014.0 mb)
Winds: variable direction winds at 3 MPH (3 knots; 1.5 m/s)
Visibility: 6 or more miles (10+ km)
Ceiling: at least 12,000 feet AGL
Clouds: few clouds at 2000 feet AGL
Weather: no significant weather observed at this time

METAR text: RJFT 300000Z VRB02KT 9999 FEW020 28/21 Q1015
Conditions at: RJFT (KUMAMOTO(CIV/JAS, JP) observed 0000 UTC 30 June 2022
Temperature: 28.0°C (82°F)
Dewpoint: 21.0°C (70°F) [RH = 66%]
Pressure (altimeter): 29.97 inches Hg (1015.0 mb)
Winds: variable direction winds at 2 MPH (2 knots; 1.0 m/s)
Visibility: 6 or more miles (10+ km)
Ceiling: at least 12,000 feet AGL
Clouds: few clouds at 2000 feet AGL
Weather: no significant weather observed at this time

METAR text: RJFT 292300Z 04004KT 010V080 9999 FEW020 27/23 Q1015
Conditions at: RJFT (KUMAMOTO(CIV/JAS, JP) observed 2300 UTC 29 June 2022
Temperature: 27.0°C (81°F)
Dewpoint: 23.0°C (73°F) [RH = 79%]
Pressure (altimeter): 29.97 inches Hg (1015.0 mb)
Winds: from the NE (40 degrees) at 5 MPH (4 knots; 2.1 m/s)
Visibility: 6 or more miles (10+ km)
Ceiling: at least 12,000 feet AGL
Clouds: few clouds at 2000 feet AGL
Weather: no significant weather observed at this time

METAR text: RJFT 292200Z 04003KT 360V070 9999 R07/P2000N FEW030 26/22 Q1015
Conditions at: RJFT (KUMAMOTO(CIV/JAS, JP) observed 2200 UTC 29 June 2022
Temperature: 26.0°C (79°F)
Dewpoint: 22.0°C (72°F) [RH = 79%]
Pressure (altimeter): 29.97 inches Hg (1015.0 mb)
Winds: from the NE (40 degrees) at 3 MPH (3 knots; 1.5 m/s)
Visibility: 6 or more miles (10+ km)
Ceiling: at least 12,000 feet AGL
Clouds: few clouds at 3000 feet AGL
Weather: no significant weather observed at this time

METAR text: RJFT 292110Z 06003KT 9999 FEW025 24/22 Q1015 RMK 1CU025 A2998
Conditions at: RJFT (KUMAMOTO(CIV/JAS, JP) observed 2110 UTC 29 June 2022
Temperature: 24.0°C (75°F)
Dewpoint: 22.0°C (72°F) [RH = 89%]
Pressure (altimeter): 29.97 inches Hg (1015.0 mb)
Winds: from the ENE (60 degrees) at 3 MPH (3 knots; 1.5 m/s)
Visibility: 6 or more miles (10+ km)
Ceiling: at least 12,000 feet AGL
Clouds: few clouds at 2500 feet AGL
Weather: no significant weather observed at this time

METAR text: RJFT 291200Z 17003KT 9999 SCT035 27/22 Q1014
Conditions at: RJFT (KUMAMOTO(CIV/JAS, JP) observed 1200 UTC 29 June 2022
Temperature: 27.0°C (81°F)
Dewpoint: 22.0°C (72°F) [RH = 74%]
Pressure (altimeter): 29.94 inches Hg (1014.0 mb)
Winds: from the S (170 degrees) at 3 MPH (3 knots; 1.5 m/s)
Visibility: 6 or more miles (10+ km)
Ceiling: at least 12,000 feet AGL
Clouds: scattered clouds at 3500 feet AGL
Weather: no significant weather observed at this time

METAR text: RJFT 291100Z 19004KT 160V220 9999 FEW035 SCT040 28/21 Q1013
Conditions at: RJFT (KUMAMOTO(CIV/JAS, JP) observed 1100 UTC 29 June 2022
Temperature: 28.0°C (82°F)
Dewpoint: 21.0°C (70°F) [RH = 66%]
Pressure (altimeter): 29.91 inches Hg (1013.0 mb)
Winds: from the S (190 degrees) at 5 MPH (4 knots; 2.1 m/s)
Visibility: 6 or more miles (10+ km)
Ceiling: at least 12,000 feet AGL
Clouds: few clouds at 3500 feet AGL
scattered clouds at 4000 feet AGL
Weather: no significant weather observed at this time

METAR text: RJFT 291000Z 26008KT 9999 FEW030 BKN045 28/21 Q1013
Conditions at: RJFT (KUMAMOTO(CIV/JAS, JP) observed 1000 UTC 29 June 2022
Temperature: 28.0°C (82°F)
Dewpoint: 21.0°C (70°F) [RH = 66%]
Pressure (altimeter): 29.91 inches Hg (1013.0 mb)
Winds: from the W (260 degrees) at 9 MPH (8 knots; 4.1 m/s)
Visibility: 6 or more miles (10+ km)
Ceiling: 4500 feet AGL
Clouds: few clouds at 3000 feet AGL
broken clouds at 4500 feet AGL
Weather: no significant weather observed at this time

Forecast for: RJFT (KUMAMOTO(CIV/JAS, JP)
Text: TAF RJFT 301706Z 3018/0200 06003KT 9999 FEW030
Forecast period: 1800 UTC 30 June 2022 to 0000 UTC 01 July 2022
Forecast type: FROM: standard forecast or significant change
Winds: from the ENE (60 degrees) at 3 MPH (3 knots; 1.5 m/s)
Visibility: 6 or more miles (10+ km)
Ceiling: at least 12,000 feet AGL
Clouds: few clouds at 3000 feet AGL
Weather: no significant weather forecast for this period
Text: BECMG 0100/0102 23008KT
Forecast period: 0000 to 1200 UTC 01 July 2022
Forecast type: BECOMING: Conditions expected to become as follows by 0200 UTC 01 July 2022
Winds: from the SW (230 degrees) at 9 MPH (8 knots; 4.1 m/s)
Visibility: 6 or more miles (10+ km)
Ceiling: at least 12,000 feet AGL
Clouds: few clouds at 3000 feet AGL
Weather: no significant weather forecast for this period
Text: BECMG 0112/0115 06005KT
Forecast period: 1200 UTC 01 July 2022 to 0000 UTC 02 July 2022
Forecast type: BECOMING: Conditions expected to become as follows by 1500 UTC 01 July 2022
Winds: from the ENE (60 degrees) at 6 MPH (5 knots; 2.6 m/s)
Visibility: 6 or more miles (10+ km)
Ceiling: at least 12,000 feet AGL
Clouds: few clouds at 3000 feet AGL
Weather: no significant weather forecast for this period